Las Vegas, Nevada (DRI) Weather observations

Data are for observation ending at time listed.
 Day   Time    Ave.   Ave.  Ave.  Vector   Max.   Stn.    Total    Solar   Ave.  
  of    of     Air    Rel.  Wind   Wind    Wind   Baro.  Precip.   Rad.    Soil  
Year   Day     Temp.  Hum.  Speed  Dir.    Gust   Pres.                    Temp. 
2014   (PST)    F      %     mph   deg.    mph     mb.     in.     W/m2     F   
------------------------------------------------------------------------------
 329   18:10   54.6    26    0.0     0      0.0   955.8    0.00       0    64.0
 329   18:20   54.6    26    0.0     0      0.0   955.9    0.00       0    64.0
 329   18:30   55.1    24    0.0     0      0.0   956.0    0.00       0    63.9
 329   18:40   54.6    26    0.0     0      0.0   956.1    0.00       0    63.9
 329   18:50   54.1    26    0.0     0      0.0   956.1    0.00       0    63.9
 329   19:00   53.8    27    0.4   175      2.4   956.1    0.00       0    63.9
 329   19:10   53.9    27    0.0   177      0.8   956.0    0.00       0    63.8
 329   19:20   53.5    28    0.1   176      0.9   956.1    0.00       0    63.8
 329   19:30   53.1    27    0.0     0      0.0   956.2    0.00       0    63.7
 329   19:40   52.5    28    0.2    16      1.7   956.3    0.00       0    63.7
 329   19:50   53.1    28    0.1     3      1.0   956.2    0.00       0    63.6
 329   20:00   53.0    29    0.0     0      0.0   956.3    0.00       0    63.6
 329   20:10   53.3    29    0.4    28      2.2   956.4    0.00       0    63.5
 329   20:20   53.3    29    0.4   155      2.0   956.4    0.00       0    63.5
 329   20:30   51.9    32    0.1   176      1.3   956.4    0.00       0    63.4
 329   20:40   51.2    32    0.2   178      1.2   956.5    0.00       0    63.4
 329   20:50   51.0    32    0.0     0      0.0   956.6    0.00       0    63.3
 329   21:00   51.1    32    0.0     0      0.0   956.7    0.00       0    63.3
 329   21:10   50.7    33    0.0     0      0.0   956.8    0.00       0    63.2
 329   21:20   50.8    33    0.0     0      0.0   956.9    0.00       0    63.1
 329   21:30   50.2    35    0.4   162      1.4   957.0    0.00       0    63.1
 329   21:40   49.5    36    0.0     0      0.0   956.9    0.00       0    63.0
 329   21:50   49.8    35    0.0     0      0.0   957.0    0.00       0    63.0
 329   22:00   49.8    36    0.0     0      0.0   957.0    0.00       0    62.9
 329   22:10   49.5    38    0.0     0      0.0   956.9    0.00       0    62.8
 329   22:20   48.8    40    0.0     0      0.0   956.9    0.00       0    62.7
 329   22:30   48.6    40    0.0   183      0.3   957.0    0.00       0    62.7
 329   22:40   48.6    39    0.0     0      0.0   956.9    0.00       0    62.6
 329   22:50   48.2    39    0.0     0      0.0   956.9    0.00       0    62.6
 329   23:00   47.9    40    0.0     0      0.0   956.9    0.00       0    62.5
 329   23:10   47.9    41    0.0     0      0.0   956.9    0.00       0    62.4
 329   23:20   48.0    40    0.5   178      2.0   956.8    0.00       0    62.4
 329   23:30   48.3    36    0.6   176      1.9   956.8    0.00       0    62.3
 329   23:40   48.7    33    1.0   168      2.2   956.7    0.00       0    62.2
 329   23:50   48.6    32    1.3   171      2.1   956.8    0.00       0    62.2
 330    0:00   48.0    33    0.4   178      1.8   956.8    0.00       0    62.1
 330    0:10   47.9    33    0.0     0      0.0   956.8    0.00       0    62.0
 330    0:20   47.6    34    0.0   146      0.4   956.7    0.00       0    62.0
 330    0:30   47.1    36    0.0   146      0.2   956.7    0.00       0    61.9
 330    0:40   46.6    37    0.0     0      0.0   956.5    0.00       0    61.8
 330    0:50   46.9    38    0.0     0      0.0   956.5    0.00       0    61.7
 330    1:00   46.8    40    0.0     0      0.0   956.5    0.00       0    61.7
 330    1:10   46.5    41    0.2   161      1.9   956.5    0.00       0    61.6
 330    1:20   45.9    42    0.2   171      1.7   956.6    0.00       0    61.5
 330    1:30   45.6    43    0.0     0      0.0   956.6    0.00       0    61.5
 330    1:40   46.3    41    0.0     0      0.0   956.5    0.00       0    61.4
 330    1:50   45.9    42    0.5   181      1.9   956.4    0.00       0    61.3
 330    2:00   45.5    41    0.0     0      0.0   956.2    0.00       0    61.3
 330    2:10   45.7    41    0.0     0      0.0   956.2    0.00       0    61.2
 330    2:20   45.6    38    0.5   171      1.9   956.1    0.00       0    61.1
 330    2:30   45.6    37    0.0     0      0.0   956.2    0.00       0    61.1
 330    2:40   45.2    36    0.0   144      0.9   956.2    0.00       0    61.0
 330    2:50   45.3    40    0.0     0      0.0   956.3    0.00       0    61.0
 330    3:00   45.1    41    0.0     0      0.0   956.4    0.00       0    60.9
 330    3:10   44.8    43    0.0     0      0.0   956.3    0.00       0    60.8
 330    3:20   44.5    44    0.2    50      1.5   956.3    0.00       0    60.8
 330    3:30   44.8    44    0.5    29      2.6   956.2    0.00       0    60.7
 330    3:40   44.2    46    0.2    11      1.4   956.3    0.00       0    60.6
 330    3:50   43.7    45    0.0     0      0.0   956.3    0.00       0    60.6
 330    4:00   43.7    44    0.1     9      0.9   956.4    0.00       0    60.5
 330    4:10   43.6    46    0.0     0      0.0   956.6    0.00       0    60.4
 330    4:20   43.2    46    0.0    11      1.3   956.6    0.00       0    60.3
 330    4:30   43.4    47    0.0     0      0.0   956.5    0.00       0    60.3
 330    4:40   44.4    44    0.0    62      0.9   956.5    0.00       0    60.2
 330    4:50   45.6    41    0.1   165      1.5   956.5    0.00       0    60.1
 330    5:00   45.9    40    0.0   198      0.4   956.5    0.00       0    60.1
 330    5:10   45.4    41    0.0     0      0.0   956.6    0.00       0    60.0
 330    5:20   44.8    44    0.0     0      0.0   956.6    0.00       0    59.9
 330    5:30   44.0    44    0.0     0      0.0   956.7    0.00       0    59.9
 330    5:40   44.7    42    0.0   190      0.4   956.8    0.00       0    59.8
 330    5:50   44.2    43    0.0     0      0.0   956.8    0.00       0    59.7
 330    6:00   44.4    42    0.0     0      0.0   956.9    0.00       0    59.7
 330    6:10   44.1    43    0.1    69      1.5   957.0    0.00       0    59.6
 330    6:20   43.5    44    0.0   132      0.1   957.0    0.00       2    59.5
 330    6:30   42.7    46    0.0     0      0.0   957.1    0.00       4    59.5
 330    6:40   42.4    47    0.1    36      1.2   957.2    0.00       7    59.4
 330    6:50   42.3    46    0.2    34      1.2   957.2    0.00      11    59.4
 330    7:00   42.5    44    0.0     0      0.0   957.3    0.00      14    59.3
 330    7:10   43.1    44    0.0     0      0.0   957.3    0.00      18    59.2
 330    7:20   43.8    42    0.0     0      0.0   957.4    0.00      18    59.2
 330    7:30   44.5    40    0.0     0      0.0   957.6    0.00      20    59.1
 330    7:40   45.4    38    0.0    28      0.8   957.6    0.00      23    59.1
 330    7:50   46.8    38    0.2    24      1.8   957.7    0.00      25    59.0
 330    8:00   47.6    36    0.0    65      0.5   957.8    0.00      25    58.9
 330    8:10   48.6    33    0.0     0      0.0   957.9    0.00      25    58.9
 330    8:20   49.1    32    0.0     0      0.0   958.0    0.00      27    58.8
 330    8:30   49.7    33    0.2   183      1.2   958.0    0.00      28    58.7
 330    8:40   50.6    32    0.0     0      0.0   958.0    0.00      31    58.7
 330    8:50   51.4    30    0.2   183      1.4   958.0    0.00     145    58.6
 330    9:00   53.1    28    0.3   171      1.8   958.0    0.00     421    58.6
 330    9:10   56.9    23    0.2   197      1.6   957.9    0.00     448    58.5
 330    9:20   58.2    22    0.4   194      2.9   958.1    0.00     472    58.5
 330    9:30   58.0    22    0.4   216      1.8   958.1    0.00     495    58.4
 330    9:40   59.4    20    0.9   212      2.0   958.0    0.00     517    58.4
 330    9:50   60.4    19    0.4   179      2.6   957.9    0.00     536    58.3
 330   10:00   62.1    18    0.0     0      0.0   957.9    0.00     550    58.3
 330   10:10   62.8    18    0.5    40      2.0   957.7    0.00     565    58.3
 330   10:20   62.7    17    0.4   107      2.6   957.6    0.00     400    58.3
 330   10:30   61.9    18    0.6    27      2.1   957.3    0.00     597    58.3
 330   10:40   61.9    17    1.0   135      3.2   957.1    0.00     604    58.3
 330   10:50   62.7    15    0.8    11      2.9   957.1    0.00     612    58.3
 330   11:00   63.0    15    0.9   218      2.9   956.9    0.00     621    58.4
 330   11:10   64.1    14    1.1   172      3.7   956.6    0.00     624    58.4
 330   11:20   64.1    14    1.5   188      3.9   956.4    0.00     628    58.5
 330   11:30   64.8    14    0.6    63      2.9   956.2    0.00     630    58.5
 330   11:40   65.2    14    2.1   182      3.9   956.1    0.00     627    58.6
 330   11:50   65.5    14    0.9   202      3.1   955.9    0.00     624    58.7
 330   12:00   65.8    14    1.1    19      3.1   955.6    0.00     623    58.8
 330   12:10   66.3    13    1.1   350      2.9   955.4    0.00     617    59.0
 330   12:20   65.9    14    1.3   339      3.1   955.2    0.00     611    59.1
 330   12:30   67.6    14    0.8   165      3.1   955.1    0.00     600    59.3
 330   12:40   68.1    14    1.1   124      4.0   954.8    0.00     587    59.5
 330   12:50   67.8    14    0.8    33      3.6   954.7    0.00     574    59.7
 330   13:00   68.4    14    1.5    35      5.4   954.6    0.00     560    59.9
 330   13:10   69.1    14    1.1    25      2.8   954.5    0.00     542    60.1
 330   13:20   69.0    14    0.6    38      2.8   954.3    0.00     522    60.3
 330   13:30   70.0    14    0.4    44      2.5   954.1    0.00     503    60.5
 330   13:40   70.9    13    0.3   244      2.0   954.0    0.00     481    60.7
 330   13:50   70.8    14    1.2    19      3.2   954.0    0.00     459    60.9
 330   14:00   70.5    14    0.3     0      2.6   953.9    0.00     433    61.1
 330   14:10   72.1    13    0.8    43      3.1   953.8    0.00     406    61.4
 330   14:20   71.7    13    0.7    43      3.1   953.8    0.00     378    61.6
 330   14:30   72.2    13    0.4    21      2.6   953.8    0.00     350    61.9
 330   14:40   71.5    13    1.0    32      3.1   953.7    0.00     322    62.1
 330   14:50   70.9    14    0.9    27      3.3   953.6    0.00     292    62.4
 330   15:00   72.0    13    0.6   173      2.8   953.7    0.00     262    62.6
 330   15:10   71.4    14    1.0   183      2.4   953.5    0.00     233    62.8
 330   15:20   71.3    14    0.5    86      2.1   953.5    0.00     203    62.9
 330   15:30   72.8    13    0.1     8      0.8   953.5    0.00     173    63.1
 330   15:40   72.9    13    0.2    50      2.0   953.5    0.00     142    63.3
 330   15:50   71.7    14    0.0    48      0.4   953.4    0.00      88    63.5
 330   16:00   68.4    15    0.0    49      0.5   953.4    0.00      27    63.6
 330   16:10   66.8    17    0.1    54      1.8   953.4    0.00      15    63.7
 330   16:20   65.6    19    0.0     0      0.0   953.4    0.00      10    63.9
 330   16:30   64.3    21    0.0     0      0.0   953.5    0.00       5    64.0
 330   16:40   63.0    22    0.0     0      0.0   953.5    0.00       4    64.1
 330   16:50   62.2    22    0.0     0      0.0   953.6    0.00       2    64.2
 330   17:00   61.5    23    0.0     0      0.0   953.6    0.00       0    64.2
 330   17:10   60.8    24    0.0     0      0.0   953.6    0.00       0    64.3
 330   17:20   60.3    24    0.0     0      0.0   953.6    0.00       0    64.3
 330   17:30   59.8    24    0.0     0      0.0   953.7    0.00       0    64.3
 330   17:40   59.5    25    0.0     0      0.0   953.7    0.00       0    64.4
 330   17:50   59.1    25    0.0     0      0.0   953.7    0.00       0    64.4
 330   18:00   59.2    26    0.0     0      0.0   953.7    0.00       0    64.4

Return to Las Vegas, Nevada graphs page.


Western Regional Climate Center,wrcc@dri.edu